Time;durP1;ratioP1;P1;durP2;ratioP2;P2;SDS_P1;SDS_P2;PMS_P1;PMS_P2;Temp;Humidity;BMP_temperature;BMP_pressure;BME280_temperature;BME280_humidity;BME280_pressure;Samples;Min_cycle;Max_cycle;Signal;HPM_P1;HPM_P2
2021/11/12 00:14:49;;;;;;;55.40;32.55;;;;;;;;;;5032057;28;20033;-67
2021/11/12 00:17:16;;;;;;;56.28;33.10;;;;;;;;;;5014574;28;20497;-66
2021/11/12 00:19:42;;;;;;;52.67;32.10;;;;;;;;;;5014877;28;20460;-66
2021/11/12 00:22:08;;;;;;;54.88;31.73;;;;;;;;;;5014482;28;20029;-66
2021/11/12 00:24:34;;;;;;;58.95;32.78;;;;;;;;;;5014205;28;20033;-66
2021/11/12 00:27:04;;;;;;;52.65;32.05;;;;;;;;;;5014632;28;20394;-67
2021/11/12 00:29:30;;;;;;;52.70;31.10;;;;;;;;;;5014726;28;20462;-66
2021/11/12 00:34:52;;;;;;;55.95;32.28;;;;;;;;;;5032271;28;20117;-66
2021/11/12 00:45:28;;;;;;;53.10;31.95;;;;;;;;;;5031844;28;20037;-67
2021/11/12 00:48:09;;;;;;;54.85;31.55;;;;;;;;;;5014167;28;20379;-65
2021/11/12 00:55:35;;;;;;;62.13;33.92;;;;;;;;;;5031894;28;20121;-67
2021/11/12 00:58:01;;;;;;;53.60;30.70;;;;;;;;;;5014132;28;20029;-66
2021/11/12 01:00:27;;;;;;;55.67;31.42;;;;;;;;;;5013577;28;20030;-67
2021/11/12 01:02:54;;;;;;;52.53;30.75;;;;;;;;;;5013925;28;20029;-67
2021/11/12 01:05:20;;;;;;;52.75;29.85;;;;;;;;;;5013482;28;20041;-67
2021/11/12 01:07:46;;;;;;;53.67;30.33;;;;;;;;;;5013898;28;20026;-66
2021/11/12 01:19:23;;;;;;;50.15;28.77;;;;;;;;;;5031102;28;20105;-67
2021/11/12 01:21:50;;;;;;;49.85;29.55;;;;;;;;;;5014090;28;20101;-67
2021/11/12 01:24:32;;;;;;;51.05;29.70;;;;;;;;;;5013359;28;20075;-66
2021/11/12 01:27:48;;;;;;;47.83;29.55;;;;;;;;;;5028849;28;20048;-66
2021/11/12 01:30:35;;;;;;;49.63;30.63;;;;;;;;;;4953577;28;20038;-67
2021/11/12 01:33:05;;;;;;;52.85;29.48;;;;;;;;;;5013228;28;20037;-66
2021/11/12 01:35:39;;;;;;;50.00;28.88;;;;;;;;;;5013538;28;20034;-67
2021/11/12 01:38:17;;;;;;;52.67;30.85;;;;;;;;;;5014095;28;20034;-66
2021/11/12 01:44:27;;;;;;;48.78;30.10;;;;;;;;;;5031404;28;20404;-67
2021/11/12 01:50:08;;;;;;;62.35;32.38;;;;;;;;;;5034550;28;20036;-67
2021/11/12 01:53:12;;;;;;;55.80;31.67;;;;;;;;;;5017415;28;20025;-67
2021/11/12 02:01:35;;;;;;;58.75;31.95;;;;;;;;;;5035156;28;20033;-67
2021/11/12 02:07:02;;;;;;;46.85;29.30;;;;;;;;;;4993103;28;20028;-66
2021/11/12 02:09:48;;;;;;;49.70;29.38;;;;;;;;;;5016824;28;20041;-67
2021/11/12 02:13:04;;;;;;;46.08;30.08;;;;;;;;;;4997464;28;20034;-66
2021/11/12 02:15:49;;;;;;;57.13;32.15;;;;;;;;;;4935504;29;20050;-68
2021/11/12 02:18:37;;;;;;;53.53;30.52;;;;;;;;;;4919611;29;20455;-67
2021/11/12 02:27:13;;;;;;;47.35;30.10;;;;;;;;;;5002485;28;20490;-67
2021/11/12 02:30:20;;;;;;;;;;;;;;;;;;;;;
2021/11/12 02:32:58;;;;;;;48.30;31.17;;;;;;;;;;5029883;28;20026;-67
2021/11/12 02:35:30;;;;;;;47.50;28.27;;;;;;;;;;5016243;28;20091;-67
2021/11/12 02:38:31;;;;;;;56.92;32.25;;;;;;;;;;5015978;28;20040;-68
2021/11/12 02:41:00;;;;;;;48.30;27.85;;;;;;;;;;4950827;28;20029;-67
2021/11/12 02:43:32;;;;;;;52.47;28.75;;;;;;;;;;5016112;28;20075;-67
2021/11/12 02:46:34;;;;;;;44.28;27.50;;;;;;;;;;5017279;28;20060;-67
2021/11/12 02:52:38;;;;;;;50.60;31.58;;;;;;;;;;4943308;28;20054;-67
2021/11/12 02:55:31;;;;;;;51.65;31.13;;;;;;;;;;4937441;29;20035;-67
2021/11/12 02:58:15;;;;;;;49.05;30.15;;;;;;;;;;5005773;28;20229;-67
2021/11/12 03:00:58;;;;;;;47.80;30.17;;;;;;;;;;5015884;28;20041;-66
2021/11/12 03:03:33;;;;;;;52.78;29.63;;;;;;;;;;5015557;28;20037;-69
2021/11/12 03:06:19;;;;;;;47.08;29.85;;;;;;;;;;5013542;28;20076;-68
2021/11/12 03:08:57;;;;;;;51.58;30.92;;;;;;;;;;5015291;28;20037;-66
2021/11/12 03:12:12;;;;;;;48.42;29.60;;;;;;;;;;5020753;28;20038;-67
2021/11/12 03:14:56;;;;;;;48.13;30.55;;;;;;;;;;5010472;28;20029;-65
2021/11/12 03:17:33;;;;;;;52.13;31.30;;;;;;;;;;5015848;28;20114;-66
2021/11/12 03:20:16;;;;;;;52.13;30.60;;;;;;;;;;5015873;28;20029;-66
2021/11/12 05:33:28;;;;;;;;;;;;;;;;;;5032207;28;20040;-67
2021/11/12 05:50:01;;;;;;;55.45;30.85;;;;;;;;;;5014069;28;20030;-66
2021/11/12 05:55:26;;;;;;;54.03;31.00;;;;;;;;;;5030166;28;20045;-66
2021/11/12 05:58:08;;;;;;;57.28;34.00;;;;;;;;;;5015203;28;20069;-65
2021/11/12 06:00:53;;;;;;;54.00;33.13;;;;;;;;;;5032039;28;20040;-66
2021/11/12 06:03:39;;;;;;;53.55;31.63;;;;;;;;;;5031462;28;20095;-65
2021/11/12 06:06:20;;;;;;;55.70;33.35;;;;;;;;;;4958996;28;20400;-66
2021/11/12 06:08:54;;;;;;;54.67;32.85;;;;;;;;;;4961913;28;20129;-66
2021/11/12 06:11:31;;;;;;;54.58;32.38;;;;;;;;;;4951507;28;20031;-66
2021/11/12 06:13:58;;;;;;;55.72;32.08;;;;;;;;;;4952803;28;20043;-66
2021/11/12 06:16:24;;;;;;;55.17;34.25;;;;;;;;;;4965480;28;20114;-65
2021/11/12 06:18:54;;;;;;;58.28;33.20;;;;;;;;;;4977406;28;20154;-66
2021/11/12 06:21:25;;;;;;;58.25;34.40;;;;;;;;;;4972055;28;20065;-66
2021/11/12 06:24:03;;;;;;;70.00;36.38;;;;;;;;;;4976678;28;20046;-66
2021/11/12 06:26:34;;;;;;;59.85;35.63;;;;;;;;;;4997626;28;20030;-66
2021/11/12 06:29:23;;;;;;;62.75;36.05;;;;;;;;;;5023526;28;20060;-67
2021/11/12 06:31:56;;;;;;;67.43;36.22;;;;;;;;;;5032203;28;20548;-67
2021/11/12 06:34:31;;;;;;;58.50;33.90;;;;;;;;;;5025409;28;20060;-70
2021/11/12 06:37:11;;;;;;;66.60;38.25;;;;;;;;;;5014136;28;20037;-66
2021/11/12 06:39:49;;;;;;;67.53;37.72;;;;;;;;;;5020346;28;20049;-66
2021/11/12 06:42:35;;;;;;;;;;;;;;;;;;;;;
2021/11/12 06:51:10;;;;;;;85.45;45.95;;;;;;;;;;5053491;28;20123;-66
2021/11/12 06:53:39;;;;;;;72.88;42.08;;;;;;;;;;5034807;28;20500;-66
2021/11/12 06:56:19;;;;;;;75.18;39.05;;;;;;;;;;5034952;28;20023;-66
2021/11/12 06:59:02;;;;;;;72.03;38.72;;;;;;;;;;5014652;28;20025;-66
2021/11/12 07:01:33;;;;;;;68.90;36.97;;;;;;;;;;5014438;28;20108;-67
2021/11/12 07:04:23;;;;;;;80.90;40.88;;;;;;;;;;5014595;28;20037;-66
2021/11/12 07:07:07;;;;;;;72.75;38.85;;;;;;;;;;5014608;28;20029;-66
2021/11/12 07:09:42;;;;;;;71.13;37.28;;;;;;;;;;5032942;28;20164;-66
2021/11/12 07:12:11;;;;;;;74.82;37.28;;;;;;;;;;5032633;28;20017;-66
2021/11/12 07:14:43;;;;;;;71.63;37.13;;;;;;;;;;5032440;28;20060;-66
2021/11/12 07:17:19;;;;;;;66.03;39.92;;;;;;;;;;5022727;28;20054;-67
2021/11/12 07:19:51;;;;;;;63.53;36.65;;;;;;;;;;5052556;28;20410;-67
2021/11/12 07:22:29;;;;;;;68.00;38.28;;;;;;;;;;5034663;28;20489;-67
2021/11/12 07:27:53;;;;;;;67.57;35.72;;;;;;;;;;5013924;28;20568;-67
2021/11/12 07:30:22;;;;;;;63.42;33.70;;;;;;;;;;5034486;28;20052;-67
2021/11/12 07:32:51;;;;;;;64.03;37.70;;;;;;;;;;5052450;28;20025;-66
2021/11/12 07:35:43;;;;;;;;;;;;;;;;;;;;;
2021/11/12 07:38:49;;;;;;;61.72;34.05;;;;;;;;;;5033211;28;20072;-68
2021/11/12 07:41:29;;;;;;;;;;;;;;;;;;5016971;28;20493;-67
2021/11/12 07:50:07;;;;;;;53.97;29.63;;;;;;;;;;5022758;28;20390;-67
2021/11/12 07:52:42;;;;;;;52.97;29.30;;;;;;;;;;5030177;28;20029;-66
2021/11/12 07:58:24;;;;;;;47.25;26.80;;;;;;;;;;5007932;28;20033;-67
2021/11/12 08:00:53;;;;;;;46.75;25.05;;;;;;;;;;5010552;28;20482;-66
2021/11/12 08:03:22;;;;;;;41.10;22.90;;;;;;;;;;5010274;28;20085;-67
2021/11/12 08:05:52;;;;;;;46.05;23.85;;;;;;;;;;5011749;28;20060;-67
2021/11/12 08:08:33;;;;;;;44.38;26.23;;;;;;;;;;5024668;28;20073;-66
2021/11/12 08:19:55;;;;;;;34.55;18.50;;;;;;;;;;5051963;28;20056;-68
2021/11/12 08:22:03;;;;;;;34.95;19.02;;;;;;;;;;5014288;28;20104;-68
2021/11/12 08:36:18;;;;;;;29.90;17.23;;;;;;;;;;5050601;28;20025;-67
2021/11/12 08:42:02;;;;;;;28.77;16.23;;;;;;;;;;5051197;28;20374;-69
2021/11/12 08:48:03;;;;;;;27.92;16.13;;;;;;;;;;5031026;28;20030;-68
2021/11/12 08:50:36;;;;;;;27.35;14.93;;;;;;;;;;5014523;28;20036;-67
2021/11/12 08:53:25;;;;;;;30.05;14.85;;;;;;;;;;5020947;28;20155;-68
2021/11/12 08:56:13;;;;;;;26.45;14.77;;;;;;;;;;5029625;28;20021;-68
2021/11/12 08:58:48;;;;;;;27.05;15.63;;;;;;;;;;5028777;28;20538;-68
2021/11/12 09:01:26;;;;;;;28.70;15.63;;;;;;;;;;5031604;28;20368;-68
2021/11/12 09:03:55;;;;;;;27.27;16.00;;;;;;;;;;5032148;28;20021;-68
2021/11/12 09:09:16;;;;;;;26.38;15.90;;;;;;;;;;5023154;28;20087;-69
2021/11/12 09:11:54;;;;;;;27.85;17.25;;;;;;;;;;5013031;28;20465;-71
2021/11/12 09:14:26;;;;;;;28.25;16.88;;;;;;;;;;5013807;28;20113;-68
2021/11/12 09:17:12;;;;;;;29.40;17.13;;;;;;;;;;5024328;28;20057;-67
2021/11/12 09:19:50;;;;;;;29.13;17.65;;;;;;;;;;5023506;28;20067;-68
2021/11/12 09:22:24;;;;;;;26.13;16.45;;;;;;;;;;5019473;28;20183;-66
2021/11/12 09:25:02;;;;;;;27.95;15.85;;;;;;;;;;5018484;28;20060;-66
2021/11/12 09:27:47;;;;;;;26.73;15.20;;;;;;;;;;5015017;28;20064;-69
2021/11/12 09:30:33;;;;;;;30.38;17.98;;;;;;;;;;5013759;28;20040;-69
2021/11/12 09:33:08;;;;;;;30.50;16.50;;;;;;;;;;5016571;28;20573;-68
2021/11/12 09:35:35;;;;;;;27.15;14.38;;;;;;;;;;5015829;28;20033;-69
2021/11/12 09:38:26;;;;;;;26.92;16.15;;;;;;;;;;5017691;28;20045;-67
2021/11/12 09:44:28;;;;;;;28.08;17.25;;;;;;;;;;4984689;28;20053;-68
2021/11/12 09:47:00;;;;;;;26.77;16.27;;;;;;;;;;4965711;28;20587;-67
2021/11/12 09:49:29;;;;;;;29.45;16.45;;;;;;;;;;5006271;28;20079;-66
2021/11/12 09:51:59;;;;;;;29.38;16.48;;;;;;;;;;5006050;28;20049;-68
2021/11/12 09:54:36;;;;;;;30.02;17.98;;;;;;;;;;5005746;28;20041;-66
2021/11/12 09:57:11;;;;;;;27.05;17.00;;;;;;;;;;5015716;28;20520;-67
2021/11/12 09:59:40;;;;;;;26.25;16.35;;;;;;;;;;5031672;28;20535;-68
2021/11/12 10:02:11;;;;;;;29.63;17.98;;;;;;;;;;5031316;28;20048;-68
2021/11/12 10:04:57;;;;;;;27.90;18.48;;;;;;;;;;5031268;28;20419;-68
2021/11/12 10:10:33;;;;;;;;;;;;;;;;;;;;;
2021/11/12 10:13:29;;;;;;;29.60;18.60;;;;;;;;;;5034006;28;20025;-67
2021/11/12 10:19:17;;;;;;;26.95;16.42;;;;;;;;;;4972648;28;20118;-67
2021/11/12 10:21:54;;;;;;;26.65;16.52;;;;;;;;;;5021011;28;20119;-67
2021/11/12 10:24:55;;;;;;;26.25;15.73;;;;;;;;;;5015252;28;20048;-67
2021/11/12 10:28:11;;;;;;;27.90;17.30;;;;;;;;;;5044401;28;20520;-68
2021/11/12 10:30:26;;;;;;;;;;;;;;;;;;5043190;28;20025;-68
2021/11/12 10:32:56;;;;;;;26.58;16.13;;;;;;;;;;5035676;28;19905;-68
2021/11/12 10:35:27;;;;;;;28.17;17.88;;;;;;;;;;5035507;28;20120;-68
2021/11/12 10:37:56;;;;;;;28.00;17.02;;;;;;;;;;5019064;28;20127;-68
2021/11/12 10:40:30;;;;;;;26.15;16.92;;;;;;;;;;5015582;28;20505;-68
2021/11/12 10:43:13;;;;;;;30.15;17.55;;;;;;;;;;5015502;28;20041;-67
2021/11/12 10:45:41;;;;;;;25.85;16.35;;;;;;;;;;5015317;28;20026;-68
2021/11/12 10:48:08;;;;;;;28.73;18.92;;;;;;;;;;5032664;28;20044;-68
2021/11/12 10:50:52;;;;;;;27.88;19.48;;;;;;;;;;5034750;28;20488;-67
2021/11/12 10:53:50;;;;;;;29.05;20.02;;;;;;;;;;5034737;28;20365;-68
2021/11/12 10:56:33;;;;;;;;;;;;;;;;;;5009018;28;20041;-68
2021/11/12 10:59:00;;;;;;;28.17;21.00;;;;;;;;;;5015684;28;20045;-67
2021/11/12 11:01:34;;;;;;;27.38;19.10;;;;;;;;;;5015916;28;20037;-68
2021/11/12 11:04:26;;;;;;;31.75;21.80;;;;;;;;;;5014595;28;20026;-66
2021/11/12 11:06:55;;;;;;;28.27;20.55;;;;;;;;;;5021138;28;20028;-67
2021/11/12 11:09:56;;;;;;;32.22;23.65;;;15.60;99.90;;;;;;5017152;28;20033;-67
2021/11/12 11:15:53;;;;;;;31.27;23.63;;;;;;;;;;5008644;28;20116;-66
2021/11/12 11:18:32;;;;;;;32.08;23.05;;;;;;;;;;5011157;28;20400;-68
2021/11/12 11:24:07;;;;;;;29.25;23.08;;;;;;;;;;5000639;28;20036;-66
2021/11/12 11:26:43;;;;;;;27.27;22.70;;;;;;;;;;5010200;28;20501;-66
2021/11/12 11:32:17;;;;;;;28.52;23.42;;;;;;;;;;5052027;28;20028;-67
2021/11/12 11:35:01;;;;;;;33.92;25.60;;;;;;;;;;5033985;28;20029;-67
2021/11/12 11:40:24;;;;;;;31.98;26.17;;;;;;;;;;5013738;28;20068;-67
2021/11/12 11:42:51;;;;;;;33.25;28.35;;;;;;;;;;5011590;28;20018;-66
2021/11/12 11:45:37;;;;;;;30.88;27.25;;;;;;;;;;4994671;28;20037;-67
2021/11/12 11:48:17;;;;;;;31.52;24.63;;;;;;;;;;4994476;28;20271;-66
2021/11/12 11:51:00;;;;;;;30.75;26.35;;;;;;;;;;4994853;28;20037;-67
2021/11/12 11:53:32;;;;;;;30.45;26.08;;;;;;;;;;4994947;28;20065;-67
2021/11/12 11:56:22;;;;;;;31.55;27.00;;;;;;;;;;4994164;28;20069;-67
2021/11/12 11:59:15;;;;;;;33.17;28.27;;;;;;;;;;4994706;28;20029;-68
2021/11/12 12:05:07;;;;;;;31.77;27.17;;;;;;;;;;4995880;28;20041;-67
2021/11/12 12:08:00;;;;;;;33.67;28.55;;;;;;;;;;5010092;28;20513;-66
2021/11/12 12:13:39;;;;;;;29.70;26.27;;;;;;;;;;5012169;28;20367;-67
2021/11/12 12:16:09;;;;;;;31.10;27.08;;;;;;;;;;4994215;28;20030;-66
2021/11/12 12:18:45;;;;;;;29.63;26.45;;;;;;;;;;4993839;28;20490;-68
2021/11/12 12:21:24;;;;;;;29.85;25.83;;;;;;;;;;4994186;28;20041;-66
2021/11/12 13:22:48;;;;;;;28.80;24.25;;;17.40;99.90;;;;;;5011476;28;20387;-65
2021/11/12 13:25:35;;;;;;;28.13;23.25;;;;;;;;;;4992613;28;20049;-66
2021/11/12 13:28:09;;;;;;;29.90;23.90;;;;;;;;;;4993980;28;20113;-67
2021/11/12 13:30:36;;;;;;;27.80;23.35;;;;;;;;;;4992989;28;20042;-67
2021/11/12 13:33:08;;;;;;;30.58;24.08;;;;;;;;;;4993605;28;20023;-66
2021/11/12 13:36:04;;;;;;;29.33;24.60;;;;;;;;;;4993157;28;20038;-66
2021/11/12 13:42:14;;;;;;;31.13;24.90;;;;;;;;;;5001661;28;20030;-67
2021/11/12 13:44:42;;;;;;;29.83;23.42;;;;;;;;;;4994710;28;20083;-66
2021/11/12 13:50:08;;;;;;;27.52;22.10;;;;;;;;;;4995400;28;20078;-66
2021/11/12 13:53:03;;;;;;;29.20;22.98;;;;;;;;;;4993890;28;20038;-65
2021/11/12 13:55:52;;;;;;;28.15;21.65;;;;;;;;;;4657016;28;9999878;-67
2021/11/12 13:58:33;;;;;;;30.08;22.27;;;;;;;;;;5012127;28;20492;-66
2021/11/12 14:00:59;;;;;;;28.58;22.80;;;;;;;;;;5012192;28;20389;-65
2021/11/12 14:03:53;;;;;;;31.83;23.63;;;;;;;;;;5011650;28;20065;-68
2021/11/12 14:06:34;;;;;;;29.98;21.80;;;;;;;;;;4951226;28;20100;-68
2021/11/12 14:09:04;;;;;;;29.15;22.63;;;;;;;;;;5012402;28;20105;-67
2021/11/12 14:11:53;;;;;;;32.92;23.33;;;;;;;;;;5012468;28;20022;-68
2021/11/12 14:14:24;;;;;;;27.98;21.80;;;;;;;;;;4950582;28;20042;-66
2021/11/12 14:17:04;;;;;;;28.83;22.02;;;;;;;;;;4988227;28;20034;-65
2021/11/12 14:33:06;;;;;;;28.98;21.85;;;;;;;;;;5012216;28;20022;-65
2021/11/12 14:46:59;;;;;;;31.83;22.00;;;;;;;;;;5011663;28;20033;-66
2021/11/12 14:52:32;;;;;;;30.08;21.63;;;;;;;;;;4921614;28;20511;-67
2021/11/12 14:55:19;;;;;;;27.30;20.67;;;;;;;;;;4991720;28;20022;-67
2021/11/12 14:57:50;;;;;;;33.78;23.58;;;;;;;;;;4991247;28;20265;-68
2021/11/12 15:00:20;;;;;;;29.27;21.88;;;;;;;;;;4995196;28;20026;-67
2021/11/12 15:02:56;;;;;;;30.70;21.88;;;;;;;;;;5011392;28;20188;-66
2021/11/12 15:05:48;;;;;;;28.10;20.90;;;;;;;;;;5010441;28;20116;-68
2021/11/12 15:08:20;;;;;;;29.42;20.98;;;;;;;;;;4989558;28;20426;-68
2021/11/12 15:10:49;;;;;;;29.60;21.55;;;;;;;;;;5005485;28;20022;-67
2021/11/12 15:13:29;;;;;;;30.05;21.52;;;;;;;;;;4993238;28;20030;-67
2021/11/12 15:16:26;;;;;;;28.02;19.60;;;;;;;;;;5011286;28;20030;-68
2021/11/12 15:19:00;;;;;;;27.98;19.63;;;;;;;;;;4986976;28;20057;-67
2021/11/12 15:21:34;;;;;;;28.38;19.92;;;;;;;;;;4993219;28;20390;-67
2021/11/12 15:24:15;;;;;;;27.88;19.30;;;;;;;;;;4992821;28;20064;-66
2021/11/12 15:29:17;;;;;;;28.38;19.27;;;;;;;;;;5010713;28;20441;-67
2021/11/12 15:31:58;;;;;;;29.55;19.85;;;;;;;;;;4992735;28;20062;-69
2021/11/12 15:34:29;;;;;;;30.15;21.05;;;;;;;;;;4992515;28;20492;-67
2021/11/12 15:45:36;;;;;;;28.40;19.63;;;;;;;;;;5009704;28;20534;-67
2021/11/12 15:48:14;;;;;;;33.70;19.67;;;;;;;;;;4992512;28;20026;-67
2021/11/12 16:27:48;;;;;;;36.22;23.38;;;;;;;;;;5009604;28;20038;-65
2021/11/12 16:30:28;;;;;;;35.33;22.20;;;;;;;;;;5006184;28;20022;-65
2021/11/12 16:33:03;;;;;;;35.10;23.20;;;;;;;;;;5000685;28;20019;-65
2021/11/12 16:38:44;;;;;;;34.38;20.00;;;;;;;;;;4982839;28;20042;-65
2021/11/12 16:41:16;;;;;;;32.90;20.35;;;;;;;;;;5008809;28;20184;-65
2021/11/12 16:44:00;;;;;;;32.25;19.95;;;;;;;;;;4989945;28;20195;-65
2021/11/12 16:49:05;;;;;;;31.13;20.33;;;;;;;;;;5006310;28;20432;-65
2021/11/12 16:52:14;;;;;;;31.33;20.30;;;;;;;;;;5008888;28;20080;-65
2021/11/12 16:58:17;;;;;;;26.92;18.25;;;;;;;;;;4985390;28;20046;-66
2021/11/12 17:01:20;;;;;;;29.48;18.33;;;;;;;;;;4976266;28;20699;-65
2021/11/12 17:15:38;;;;;;;29.70;17.73;;;;;;;;;;4952939;28;20542;-66
2021/11/12 17:18:39;;;;;;;28.77;17.92;;;;;;;;;;4992060;28;20129;-66
2021/11/12 17:48:57;;;;;;;28.93;18.77;;;;;;;;;;5009229;28;20029;-67
2021/11/12 18:02:31;;;;;;;30.75;19.60;;;;;;;;;;5008233;28;20084;-67
2021/11/12 21:47:38;;;;;;;22.80;13.90;;;;;;;;;;4992929;28;20103;-64
2021/11/12 21:50:08;;;;;;;23.50;14.00;;;;;;;;;;5008935;28;20112;-64
2021/11/12 21:52:54;;;;;;;22.98;13.95;;;;;;;;;;5009731;28;20061;-64
2021/11/12 21:55:29;;;;;;;23.90;14.00;;;;;;;;;;4991921;28;20420;-64
2021/11/12 21:58:10;;;;;;;22.98;14.30;;;;;;;;;;4991757;28;20444;-65
2021/11/12 22:03:38;;;;;;;22.50;13.50;;;;;;;;;;4992306;28;20030;-65
2021/11/12 22:06:07;;;;;;;23.30;14.00;;;;;;;;;;5011696;28;20180;-65
2021/11/12 22:08:33;;;;;;;22.05;14.25;;;;;;;;;;5009023;28;20116;-65
2021/11/12 22:11:01;;;;;;;22.90;14.10;;;;;;;;;;4989243;28;20026;-64
2021/11/12 22:16:17;;;;;;;23.65;13.95;;;;;;;;;;5013426;28;20072;-65
2021/11/12 22:18:43;;;;;;;23.27;14.10;;;;;;;;;;4996899;28;20417;-64
2021/11/12 22:21:28;;;;;;;23.52;13.10;;;;;;;;;;4996759;28;20042;-63
2021/11/12 22:24:03;;;;;;;23.10;13.32;;;;;;;;;;4996290;28;20033;-62
2021/11/12 22:29:23;;;;;;;22.27;12.98;;;;;;;;;;4967027;28;20030;-63
2021/11/12 22:31:52;;;;;;;23.15;13.60;;;;;;;;;;4993519;28;20038;-64
2021/11/12 22:34:24;;;;;;;21.88;13.02;;;;;;;;;;4991551;28;20023;-66
2021/11/12 22:39:47;;;;;;;25.30;12.93;;;;;;;;;;4994128;28;20038;-62
2021/11/12 22:42:13;;;;;;;22.30;12.43;;;;;;;;;;5011760;28;20021;-65
2021/11/12 22:45:11;;;;;;;22.88;13.15;;;;;;;;;;5013742;28;20101;-64
2021/11/12 22:47:40;;;;;;;21.15;11.65;;;;;;;;;;5013653;28;20118;-63
2021/11/12 22:50:37;;;;;;;25.95;13.15;;;;;;;;;;5011332;28;20026;-67
2021/11/12 22:53:06;;;;;;;22.90;11.48;;;;;;;;;;5013776;28;20097;-65
2021/11/12 22:55:36;;;;;;;22.65;12.32;;;;;;;;;;5013606;28;20033;-63
2021/11/12 22:58:10;;;;;;;23.80;13.20;;;;;;;;;;5012935;28;20026;-64
2021/11/12 23:00:45;;;;;;;24.50;11.93;;;;;;;;;;4995776;28;20091;-66
2021/11/12 23:03:14;;;;;;;25.23;13.18;;;;;;;;;;5012788;28;20026;-62
2021/11/12 23:05:43;;;;;;;23.95;11.73;;;;;;;;;;5011915;28;20030;-61
2021/11/12 23:08:12;;;;;;;24.15;11.75;;;;;;;;;;5011136;28;20687;-63
2021/11/12 23:10:38;;;;;;;24.60;12.25;;;;;;;;;;5012059;28;20026;-62
2021/11/12 23:13:25;;;;;;;;;;;;;;;;;;;;;
2021/11/12 23:18:47;;;;;;;23.30;12.60;;;;;;;;;;5010693;28;20453;-63
2021/11/12 23:21:19;;;;;;;25.30;14.02;;;;;;;;;;5011392;28;20026;-62
2021/11/12 23:23:49;;;;;;;25.10;12.63;;;;;;;;;;5009839;28;20097;-60
2021/11/12 23:32:05;;;;;;;26.83;12.33;;;;;;;;;;5013763;28;20028;-63
2021/11/12 23:34:45;;;;;;;29.15;14.73;;;;;;;;;;5013010;28;20032;-56
2021/11/12 23:37:20;;;;;;;25.73;14.30;;;;;;;;;;5064032;23;20060;-67
2021/11/12 23:39:52;;;;;;;24.98;14.95;;;;;;;;;;5035319;28;20588;-66
2021/11/12 23:42:23;;;;;;;27.88;14.10;;;;;;;;;;5035472;28;20035;-66
2021/11/12 23:44:54;;;;;;;25.50;13.65;;;;;;;;;;5035774;28;20045;-66
2021/11/12 23:47:47;;;;;;;23.10;12.73;;;;;;;;;;5035567;28;20071;-67
2021/11/12 23:50:26;;;;;;;25.50;14.07;;;;;;;;;;5035805;28;20079;-65
2021/11/12 23:55:50;;;;;;;25.77;14.80;;;;;;;;;;5015751;28;20143;-65
2021/11/12 23:58:22;;;;;;;22.73;13.77;;;;;;;;;;5034885;28;20033;-65
